Rona II — MPKR2 — position and weather

sailwx.info

Track history (hours):
 
Tides and Currents Weather Stations Pressure Air Temp Water Temp Dewpoint Dewpoint Depression Visibility Wind Speed Wind Dir Waves Ship Positions

Rona II

Last reported at 2014-Sep-26 11:22 UTC. Time now 2014-Oct-01 18:18 UTC.
Position N 50°52' W 001°19'.

Length 22 m.

Type: Sailing vessel. MMSI: 232714000.

Date/timePositionNaut miles runAvg speedWind from/ knotsBaromVisibWave heightAir tempDewpointWater temp
2014-Sep-26 11:22N 50°52' W 001°19'  
2014-Sep-22 10:06N 50°51' W 001°19'2 0.1
2014-Sep-21 13:32N 50°49' W 001°18'3 3.5
2014-Sep-21 12:32N 50°46' W 001°19'2 1.8
2014-Sep-21 11:32N 50°46' W 001°22'2 2.1
2014-Sep-21 10:33N 50°44' W 001°25'4 0.3
2014-Sep-20 23:14N 50°42' W 001°30'0 0.0
2014-Sep-20 22:32N 50°42' W 001°30'0 0.0
2014-Sep-20 21:32N 50°42' W 001°30'0 0.0
2014-Sep-20 20:32N 50°42' W 001°30'0 0.0
2014-Sep-20 19:32N 50°42' W 001°30'0 0.0
2014-Sep-20 18:32N 50°42' W 001°30'0 0.0
2014-Sep-20 17:32N 50°42' W 001°30'0 0.0
2014-Sep-20 16:32N 50°42' W 001°30'0 0.0
2014-Sep-20 15:32N 50°42' W 001°30'1 1.2
2014-Sep-20 14:33N 50°43' W 001°32'4 3.6
2014-Sep-20 13:33N 50°41' W 001°37'4 3.8
2014-Sep-20 12:33N 50°38' W 001°34'18 3.6
2014-Sep-20 07:32N 50°46' W 001°08'4 4.3
2014-Sep-20 06:33N 50°47' W 001°14'5 4.5
2014-Sep-20 05:22N 50°52' W 001°18'1 0.3
2014-Sep-20 03:18N 50°53' W 001°18'0 0.0
2014-Sep-20 02:24N 50°53' W 001°18'9 0.3
2014-Sep-19 00:32N 50°47' W 001°07'0 0.0
2014-Sep-18 23:32N 50°47' W 001°07'0 0.0
2014-Sep-18 22:32N 50°47' W 001°07'8 0.8
2014-Sep-18 12:29N 50°51' W 001°19'  
Track history (hours):
 
Tides and Currents Weather Stations Pressure Air Temp Water Temp Dewpoint Dewpoint Depression Visibility Wind Speed Wind Dir Waves Ship Positions

Rona II

Last reported at 2014-Sep-26 11:22 UTC. Time now 2014-Oct-01 18:18 UTC.
Position N 50°52' W 001°19'.

Length 22 m.

Type: Sailing vessel. MMSI: 232714000.

Date/timePositionNaut miles runAvg speedWind from/ knotsBaromVisibWave heightAir tempDewpointWater temp
2014-Sep-26 11:22N 50°52' W 001°19'  
2014-Sep-22 10:06N 50°51' W 001°19'2 0.1
2014-Sep-21 13:32N 50°49' W 001°18'3 3.5
2014-Sep-21 12:32N 50°46' W 001°19'2 1.8
2014-Sep-21 11:32N 50°46' W 001°22'2 2.1
2014-Sep-21 10:33N 50°44' W 001°25'4 0.3
2014-Sep-20 23:14N 50°42' W 001°30'0 0.0
2014-Sep-20 22:32N 50°42' W 001°30'0 0.0
2014-Sep-20 21:32N 50°42' W 001°30'0 0.0
2014-Sep-20 20:32N 50°42' W 001°30'0 0.0
2014-Sep-20 19:32N 50°42' W 001°30'0 0.0
2014-Sep-20 18:32N 50°42' W 001°30'0 0.0
2014-Sep-20 17:32N 50°42' W 001°30'0 0.0
2014-Sep-20 16:32N 50°42' W 001°30'0 0.0
2014-Sep-20 15:32N 50°42' W 001°30'1 1.2
2014-Sep-20 14:33N 50°43' W 001°32'4 3.6
2014-Sep-20 13:33N 50°41' W 001°37'4 3.8
2014-Sep-20 12:33N 50°38' W 001°34'18 3.6
2014-Sep-20 07:32N 50°46' W 001°08'4 4.3
2014-Sep-20 06:33N 50°47' W 001°14'5 4.5
2014-Sep-20 05:22N 50°52' W 001°18'1 0.3
2014-Sep-20 03:18N 50°53' W 001°18'0 0.0
2014-Sep-20 02:24N 50°53' W 001°18'9 0.3
2014-Sep-19 00:32N 50°47' W 001°07'0 0.0
2014-Sep-18 23:32N 50°47' W 001°07'0 0.0
2014-Sep-18 22:32N 50°47' W 001°07'8 0.8
2014-Sep-18 12:29N 50°51' W 001°19'  

Dump ship's entire track history